Time;durP1;ratioP1;P1;durP2;ratioP2;P2;SDS_P1;SDS_P2;PMS_P1;PMS_P2;Temp;Humidity;BMP_temperature;BMP_pressure;BME280_temperature;BME280_humidity;BME280_pressure;Samples;Min_cycle;Max_cycle;Signal;HPM_P1;HPM_P2
2022/09/26 00:00:46;;;;;;;4.00;1.98;;;11.80;99.90;;;11.90;100.00;100475.78;5205293;28;20064;-70
2022/09/26 00:03:18;;;;;;;2.53;1.63;;;11.80;99.90;;;11.90;100.00;100466.19;5205651;28;20041;-70
2022/09/26 00:05:51;;;;;;;2.90;1.80;;;11.80;99.90;;;11.91;100.00;100467.97;5205654;28;20045;-71
2022/09/26 00:08:23;;;;;;;3.92;1.88;;;11.80;99.90;;;11.93;100.00;100471.53;5205645;28;20052;-70
2022/09/26 00:10:57;;;;;;;3.08;1.67;;;11.80;99.90;;;11.96;100.00;100462.84;5203530;28;20053;-70
2022/09/26 00:13:33;;;;;;;3.63;1.88;;;11.90;99.90;;;11.99;100.00;100465.53;5205499;28;20496;-70
2022/09/26 00:16:07;;;;;;;2.38;1.70;;;11.90;99.90;;;12.01;100.00;100460.38;5205551;28;20049;-69
2022/09/26 00:18:39;;;;;;;3.55;1.55;;;11.90;99.90;;;12.04;100.00;100453.47;5204819;28;20409;-70
2022/09/26 00:21:14;;;;;;;2.05;1.60;;;11.90;99.90;;;12.07;100.00;100457.91;5205496;28;20049;-70
2022/09/26 00:23:47;;;;;;;3.22;1.83;;;12.00;99.90;;;12.07;100.00;100453.56;5205665;28;20037;-70
2022/09/26 00:26:21;;;;;;;3.25;1.52;;;12.00;99.90;;;12.11;100.00;100444.03;5205364;28;20065;-69
2022/09/26 00:28:56;;;;;;;3.72;1.52;;;12.00;99.90;;;12.12;100.00;100440.56;5203597;28;20674;-70
2022/09/26 00:31:31;;;;;;;2.97;1.70;;;12.00;99.90;;;12.13;100.00;100434.53;5220763;28;20052;-70
2022/09/26 00:34:04;;;;;;;4.40;1.80;;;12.00;99.90;;;12.14;100.00;100429.34;5203912;28;20049;-70
2022/09/26 00:36:36;;;;;;;2.78;1.60;;;12.10;99.90;;;12.15;100.00;100425.88;5220184;28;20052;-70
2022/09/26 00:39:10;;;;;;;3.97;2.10;;;12.10;99.90;;;12.17;100.00;100428.50;5204814;28;20051;-70
2022/09/26 00:41:43;;;;;;;4.57;1.83;;;12.10;99.90;;;12.14;100.00;100424.09;5220349;28;20053;-70
2022/09/26 00:44:53;;;;;;;3.63;1.77;;;12.10;99.90;;;12.14;100.00;100428.44;5220315;28;20144;-70
2022/09/26 00:47:36;;;;;;;5.63;1.90;;;12.10;99.90;;;12.14;100.00;100418.88;5105382;29;20059;-70
2022/09/26 00:50:18;;;;;;;3.80;1.58;;;12.10;99.90;;;12.11;100.00;100424.00;5121297;29;20110;-70
2022/09/26 00:53:08;;;;;;;2.30;1.52;;;12.10;99.90;;;12.10;100.00;100417.03;5172828;28;20046;-70
2022/09/26 00:55:53;;;;;;;2.33;1.77;;;12.10;99.90;;;12.12;100.00;100419.69;5220279;28;20059;-71
2022/09/26 00:58:40;;;;;;;3.42;2.08;;;12.10;99.90;;;12.10;100.00;100409.19;5203388;28;20049;-70
2022/09/26 01:01:14;;;;;;;3.53;1.83;;;12.10;99.90;;;12.08;100.00;100408.28;5219807;28;20052;-70
2022/09/26 01:03:49;;;;;;;3.50;1.98;;;12.00;99.90;;;12.05;100.00;100397.75;5219875;28;20050;-70
2022/09/26 01:06:22;;;;;;;3.03;1.73;;;12.00;99.90;;;12.03;100.00;100398.56;5204850;28;20391;-70
2022/09/26 01:09:00;;;;;;;3.33;1.70;;;12.00;99.90;;;12.02;100.00;100388.97;5204026;28;20068;-70
2022/09/26 01:11:34;;;;;;;3.03;1.80;;;12.00;99.90;;;11.98;100.00;100382.78;5220075;28;20053;-70
2022/09/26 01:14:09;;;;;;;3.75;1.80;;;11.90;99.90;;;11.96;100.00;100376.66;5219537;28;20507;-69
2022/09/26 01:16:47;;;;;;;3.65;1.67;;;11.90;99.90;;;11.91;100.00;100375.66;5219793;28;20057;-70
2022/09/26 01:19:29;;;;;;;2.35;1.60;;;11.90;99.90;;;11.89;100.00;100380.88;5204010;28;20045;-70
2022/09/26 01:22:29;;;;;;;3.47;1.73;;;11.80;99.90;;;11.86;100.00;100365.09;5203903;28;20045;-70
2022/09/26 01:25:19;;;;;;;2.88;1.77;;;11.80;99.90;;;11.82;100.00;100367.63;5219713;28;20096;-70
2022/09/26 01:28:15;;;;;;;3.65;1.90;;;11.80;99.90;;;11.78;100.00;100361.41;5219572;28;20140;-70
2022/09/26 01:30:57;;;;;;;4.05;1.80;;;11.80;99.90;;;11.78;100.00;100360.53;5238847;23;20252;-71
2022/09/26 01:33:50;;;;;;;3.28;1.80;;;11.80;99.90;;;11.76;100.00;100357.91;5210581;28;20549;-71
2022/09/26 01:37:02;;;;;;;2.50;1.73;;;11.80;99.90;;;11.80;100.00;100358.81;5237368;28;20056;-72
2022/09/26 01:39:56;;;;;;;3.83;1.98;;;11.70;99.90;;;11.78;100.00;100350.09;5222551;28;20052;-70
2022/09/26 01:42:37;;;;;;;4.20;2.40;;;11.70;99.90;;;11.72;100.00;100355.16;5202512;28;20063;-72
2022/09/26 01:45:18;;;;;;;2.17;1.67;;;11.70;99.90;;;11.69;100.00;100359.47;5202234;28;20140;-70
2022/09/26 01:48:03;;;;;;;3.78;1.95;;;11.70;99.90;;;11.71;100.00;100353.41;5202735;28;20166;-71
2022/09/26 01:50:43;;;;;;;2.85;1.75;;;11.70;99.90;;;11.73;100.00;100359.53;5202551;28;20056;-72
2022/09/26 01:53:21;;;;;;;2.53;1.75;;;11.70;99.90;;;11.77;100.00;100364.00;5204185;28;20418;-71
2022/09/26 01:56:03;;;;;;;3.28;1.70;;;11.70;99.90;;;11.80;100.00;100351.91;5203054;28;20057;-71
2022/09/26 01:58:42;;;;;;;4.20;1.75;;;11.70;99.90;;;11.80;100.00;100345.78;5218940;28;20099;-71
2022/09/26 02:01:18;;;;;;;4.40;2.03;;;11.80;99.90;;;11.79;100.00;100344.91;5219363;28;20055;-70
2022/09/26 02:03:56;;;;;;;2.83;1.70;;;11.70;99.90;;;11.78;100.00;100340.53;5214797;28;20130;-71
2022/09/26 02:06:38;;;;;;;2.35;1.52;;;11.80;99.90;;;11.79;100.00;100344.00;5224676;28;20456;-74
2022/09/26 02:09:16;;;;;;;3.28;1.65;;;11.80;99.90;;;11.79;100.00;100341.41;5222952;28;20416;-72
2022/09/26 02:11:52;;;;;;;3.22;1.90;;;11.70;99.90;;;11.78;100.00;100331.81;5223055;28;20107;-71
2022/09/26 02:14:29;;;;;;;2.63;1.63;;;11.80;99.90;;;11.76;100.00;100329.16;5223143;28;20045;-71
2022/09/26 02:17:08;;;;;;;4.53;1.80;;;11.70;99.90;;;11.73;100.00;100325.59;5223301;28;20498;-70
2022/09/26 02:19:50;;;;;;;3.83;2.00;;;11.70;99.90;;;11.68;100.00;100315.06;5224274;28;20052;-71
2022/09/26 02:22:24;;;;;;;4.05;1.90;;;11.70;99.90;;;11.63;100.00;100309.75;5223342;28;20053;-71
2022/09/26 02:24:57;;;;;;;4.88;2.00;;;11.70;99.90;;;11.63;100.00;100304.50;5223221;28;20413;-71
2022/09/26 02:27:31;;;;;;;3.25;1.73;;;11.60;99.90;;;11.64;100.00;100294.94;5223626;28;20080;-72
2022/09/26 02:30:04;;;;;;;4.93;1.73;;;11.70;99.90;;;11.64;100.00;100290.59;5223397;28;20053;-72
2022/09/26 02:32:37;;;;;;;3.60;1.95;;;11.60;99.90;;;11.63;100.00;100290.59;5223022;28;20552;-71
2022/09/26 02:35:53;;;;;;;4.28;1.70;;;11.60;99.90;;;11.63;100.00;100291.47;5226860;28;20037;-71
2022/09/26 02:38:09;;;;;;;4.10;1.73;;;11.60;99.90;;;11.64;100.00;100290.59;5228496;28;20040;-71
2022/09/26 02:41:01;;;;;;;3.58;1.92;;;11.60;99.90;;;11.66;100.00;100288.91;5226402;28;20068;-70
2022/09/26 02:43:45;;;;;;;3.03;1.63;;;11.70;99.90;;;11.70;100.00;100287.25;5226747;28;20118;-71
2022/09/26 02:47:00;;;;;;;2.78;1.60;;;11.70;99.90;;;11.73;100.00;100278.59;5226658;28;20091;-71
2022/09/26 02:50:07;;;;;;;3.13;1.70;;;11.70;99.90;;;11.76;100.00;100273.47;5224925;28;20053;-71
2022/09/26 02:52:54;;;;;;;3.30;1.85;;;11.70;99.90;;;11.78;100.00;100266.53;5227998;28;20092;-71
2022/09/26 02:55:46;;;;;;;1.95;1.60;;;11.70;99.90;;;11.80;100.00;100262.22;5226047;28;20045;-71
2022/09/26 02:58:25;;;;;;;2.38;1.30;;;11.70;99.90;;;11.81;100.00;100266.66;5226501;28;20041;-71
2022/09/26 03:01:04;;;;;;;3.33;1.77;;;11.80;99.90;;;11.84;100.00;100251.03;5226386;28;20136;-71
2022/09/26 03:03:43;;;;;;;3.72;1.88;;;11.80;99.90;;;11.86;100.00;100252.81;5226262;28;20057;-72
2022/09/26 03:06:21;;;;;;;2.38;1.40;;;11.80;99.90;;;11.87;100.00;100246.75;5225923;28;20056;-72
2022/09/26 03:08:57;;;;;;;1.75;1.58;;;11.80;99.90;;;11.87;100.00;100244.16;5226217;28;20127;-71
2022/09/26 03:11:32;;;;;;;3.15;1.55;;;11.80;99.90;;;11.89;100.00;100238.97;5226173;28;20048;-71
2022/09/26 03:14:05;;;;;;;2.65;1.80;;;11.90;99.90;;;11.89;100.00;100225.91;5242878;28;20446;-69
2022/09/26 03:16:41;;;;;;;2.40;1.60;;;11.80;99.90;;;11.85;100.00;100230.16;5225515;28;20049;-71
2022/09/26 03:19:26;;;;;;;4.00;1.60;;;11.80;99.90;;;11.83;100.00;100215.31;5225836;28;20143;-71
2022/09/26 03:22:00;;;;;;;1.85;1.30;;;11.80;99.90;;;11.85;100.00;100213.63;5242417;28;20513;-71
2022/09/26 03:24:37;;;;;;;4.03;1.70;;;11.80;99.90;;;11.86;100.00;100213.63;5225905;28;20048;-71
2022/09/26 03:27:11;;;;;;;2.92;1.60;;;11.80;99.90;;;11.84;100.00;100202.28;5225865;28;20037;-71
2022/09/26 03:29:44;;;;;;;2.20;1.45;;;11.80;99.90;;;11.86;100.00;100197.97;5226857;28;20485;-72
2022/09/26 03:32:23;;;;;;;4.00;1.70;;;11.90;99.90;;;11.88;100.00;100196.28;5242452;28;20405;-71
2022/09/26 03:34:56;;;;;;;2.45;1.48;;;11.90;99.90;;;11.91;100.00;100198.06;5225947;28;20402;-72
2022/09/26 03:37:28;;;;;;;2.85;1.60;;;11.90;99.90;;;11.91;100.00;100191.13;5225254;28;20425;-71
2022/09/26 03:40:02;;;;;;;1.95;1.60;;;11.90;99.90;;;11.92;100.00;100181.53;5225124;28;20144;-72
2022/09/26 03:42:56;;;;;;;2.95;1.42;;;11.90;99.90;;;11.95;100.00;100176.41;5226872;28;20045;-71
2022/09/26 03:45:29;;;;;;;2.40;1.42;;;11.90;99.90;;;11.95;100.00;100165.94;5224639;28;20052;-71
2022/09/26 03:48:05;;;;;;;3.83;1.55;;;11.90;99.90;;;11.96;100.00;100167.72;5225574;28;20056;-71
2022/09/26 03:50:38;;;;;;;3.80;1.45;;;11.90;99.90;;;11.96;100.00;100167.72;5225096;28;20135;-72
2022/09/26 03:53:10;;;;;;;2.90;1.63;;;11.90;99.90;;;11.95;100.00;100160.72;5225352;28;20107;-72
2022/09/26 03:55:45;;;;;;;2.97;1.50;;;11.90;99.90;;;11.92;100.00;100152.81;5226448;28;20044;-72
2022/09/26 03:58:19;;;;;;;2.60;1.50;;;11.90;99.90;;;11.92;100.00;100155.44;5225137;28;20053;-72
2022/09/26 04:00:51;;;;;;;2.95;1.70;;;11.90;99.90;;;11.91;100.00;100149.31;5224605;28;20049;-72
2022/09/26 04:03:26;;;;;;;3.00;1.50;;;11.90;99.90;;;11.91;100.00;100143.22;5225025;28;20122;-71
2022/09/26 04:05:58;;;;;;;2.55;1.48;;;11.90;99.90;;;11.91;100.00;100141.50;5225023;28;20513;-70
2022/09/26 04:08:30;;;;;;;2.33;1.55;;;11.90;99.90;;;11.91;100.00;100132.78;5224892;28;20084;-71
2022/09/26 04:11:08;;;;;;;2.63;1.42;;;11.90;99.90;;;11.91;100.00;100138.88;5224597;28;20052;-72
2022/09/26 04:13:42;;;;;;;3.55;1.63;;;11.90;99.90;;;11.90;100.00;100131.91;5225008;28;20041;-71
2022/09/26 04:16:15;;;;;;;;;;;11.90;99.90;;;11.89;100.00;100134.50;5242006;28;20409;-71
2022/09/26 04:18:56;;;;;;;2.78;1.83;;;11.90;99.90;;;11.87;100.00;100121.41;5224531;28;20015;-71
2022/09/26 04:21:32;;;;;;;4.55;1.83;;;11.80;99.90;;;11.86;100.00;100124.84;5224111;28;20088;-71
2022/09/26 04:24:04;;;;;;;3.13;1.80;;;11.90;99.90;;;11.85;100.00;100117.00;5224043;28;20048;-71
2022/09/26 04:26:40;;;;;;;3.30;1.63;;;11.80;99.90;;;11.82;100.00;100106.50;5224446;28;20413;-71
2022/09/26 04:29:12;;;;;;;6.45;2.00;;;11.80;99.90;;;11.81;100.00;100096.91;5224200;28;20554;-71
2022/09/26 04:32:18;;;;;;;3.00;1.70;;;11.80;99.90;;;11.79;100.00;100088.13;5217702;28;20049;-71
2022/09/26 04:35:09;;;;;;;2.75;1.60;;;11.70;99.90;;;11.78;100.00;100088.97;5225996;28;20106;-70
2022/09/26 04:37:42;;;;;;;3.03;2.22;;;11.70;99.90;;;11.74;100.00;100081.97;5224495;28;20580;-71
2022/09/26 04:40:15;;;;;;;4.13;2.42;;;11.70;99.90;;;11.72;100.00;100073.19;5241153;28;20055;-70
2022/09/26 04:43:00;;;;;;;3.17;1.65;;;11.70;99.90;;;11.69;100.00;100069.69;5224484;28;20056;-71
2022/09/26 04:45:33;;;;;;;3.47;1.90;;;11.70;99.90;;;11.69;100.00;100064.47;5224598;28;20040;-71
2022/09/26 04:48:06;;;;;;;2.97;1.70;;;11.70;99.90;;;11.71;100.00;100055.78;5224037;28;20071;-72
2022/09/26 04:50:57;;;;;;;3.97;2.05;;;11.70;99.90;;;11.70;100.00;100060.13;5225877;28;20508;-72
2022/09/26 04:53:29;;;;;;;3.83;2.00;;;11.70;99.90;;;11.68;100.00;100048.78;5224146;28;20053;-71
2022/09/26 04:56:12;;;;;;;3.33;2.38;;;11.70;99.90;;;11.68;100.00;100047.03;5224189;28;20045;-71
2022/09/26 04:58:47;;;;;;;3.53;1.85;;;11.70;99.90;;;11.71;100.00;100053.16;5224085;28;20312;-71
2022/09/26 05:01:22;;;;;;;2.85;2.10;;;11.70;99.90;;;11.68;100.00;100052.25;5240787;28;20049;-70
2022/09/26 05:04:17;;;;;;;3.72;2.17;;;11.70;99.90;;;11.68;100.00;100052.25;5224139;28;20048;-70
2022/09/26 05:06:50;;;;;;;2.47;1.67;;;11.70;99.90;;;11.67;100.00;100044.38;5223710;28;20509;-71
2022/09/26 05:09:32;;;;;;;4.70;2.33;;;11.70;99.90;;;11.67;100.00;100047.00;5223652;28;20048;-71
2022/09/26 05:12:11;;;;;;;5.13;2.63;;;11.70;99.90;;;11.67;100.00;100042.69;5225213;28;20055;-71
2022/09/26 05:14:46;;;;;;;4.97;2.53;;;11.70;99.90;;;11.66;100.00;100048.72;5224162;28;20048;-71
2022/09/26 05:17:20;;;;;;;5.03;2.55;;;11.70;99.90;;;11.66;100.00;100037.41;5223836;28;20084;-71
2022/09/26 05:19:52;;;;;;;4.18;2.50;;;11.70;99.90;;;11.65;100.00;100039.13;5223537;28;20060;-71
2022/09/26 05:22:24;;;;;;;3.88;2.50;;;11.70;99.90;;;11.66;100.00;100038.28;5225015;28;20072;-71
2022/09/26 05:27:46;;;;;;;5.35;2.45;;;11.70;99.90;;;11.63;100.00;100030.41;5223874;28;20134;-70
2022/09/26 05:30:20;;;;;;;4.78;2.40;;;11.60;99.90;;;11.64;100.00;100023.47;5223276;28;20057;-71
2022/09/26 05:32:54;;;;;;;6.82;2.97;;;11.60;99.90;;;11.65;100.00;100026.09;5225231;28;20200;-72
2022/09/26 05:35:26;;;;;;;4.60;2.60;;;11.70;99.90;;;11.66;100.00;100029.56;5223785;28;20051;-72
2022/09/26 05:38:00;;;;;;;5.90;2.75;;;11.70;99.90;;;11.65;100.00;100023.47;5223758;28;20464;-65
2022/09/26 05:43:23;;;;;;;5.95;2.72;;;11.70;99.90;;;11.68;100.00;100015.72;5223295;28;20107;-66
2022/09/26 05:46:03;;;;;;;5.38;2.83;;;11.70;99.90;;;11.72;100.00;100018.38;5223712;28;20474;-66
2022/09/26 05:48:41;;;;;;;7.22;3.10;;;11.70;99.90;;;11.72;100.00;100013.16;5223475;28;20049;-64
2022/09/26 05:51:22;;;;;;;5.35;2.95;;;11.70;99.90;;;11.73;100.00;100020.13;5225062;28;20444;-65
2022/09/26 05:53:54;;;;;;;7.15;3.20;;;11.70;99.90;;;11.73;100.00;100012.28;5224959;28;20480;-65
2022/09/26 05:56:31;;;;;;;6.95;3.55;;;11.70;99.90;;;11.73;100.00;100009.69;5223804;28;20452;-64
2022/09/26 05:59:04;;;;;;;5.28;3.00;;;11.70;99.90;;;11.77;100.00;100011.50;5224305;28;20053;-65
2022/09/26 06:01:56;;;;;;;7.22;2.67;;;11.70;99.90;;;11.78;100.00;100010.66;5225036;28;20118;-65
2022/09/26 06:04:51;;;;;;;6.60;3.10;;;11.70;99.90;;;11.79;100.00;100001.94;5196343;28;20517;-57
2022/09/26 06:07:44;;;;;;;8.27;3.20;;;11.80;99.90;;;11.80;100.00;99999.41;5213576;28;20069;-56
2022/09/26 06:10:22;;;;;;;7.32;3.20;;;11.80;99.90;;;11.82;100.00;99997.72;5225986;28;20045;-58
2022/09/26 06:13:01;;;;;;;5.90;3.40;;;11.80;99.90;;;11.87;100.00;100000.41;5228631;28;20740;-64
2022/09/26 06:15:34;;;;;;;7.22;3.40;;;11.80;99.90;;;11.88;100.00;99986.50;5227166;28;20051;-57
2022/09/26 06:18:08;;;;;;;5.53;2.88;;;11.90;99.90;;;11.91;100.00;99986.53;5228510;28;20541;-56
2022/09/26 06:20:40;;;;;;;7.95;3.35;;;11.90;99.90;;;11.93;100.00;99979.59;5226843;28;20041;-56
2022/09/26 06:23:12;;;;;;;6.68;3.05;;;11.90;99.90;;;11.94;100.00;99976.16;5227176;28;20103;-56
2022/09/26 06:25:46;;;;;;;4.55;2.72;;;11.90;99.90;;;11.95;100.00;99970.94;5228364;28;20037;-56
2022/09/26 06:28:18;;;;;;;5.68;2.53;;;11.90;99.90;;;12.01;100.00;99970.16;5243466;28;20053;-62
2022/09/26 06:30:50;;;;;;;4.20;2.38;;;11.90;99.90;;;12.04;100.00;99967.59;5226438;28;20056;-55
2022/09/26 06:33:50;;;;;;;4.75;2.42;;;12.00;99.90;;;12.08;100.00;99958.97;5228047;28;20452;-56
2022/09/26 06:36:38;;;;;;;4.90;2.63;;;12.00;99.90;;;12.08;100.00;99958.09;5226471;28;20047;-55
2022/09/26 06:39:10;;;;;;;7.07;2.80;;;12.10;99.90;;;12.08;100.00;99958.97;5226298;28;20517;-56
2022/09/26 06:41:42;;;;;;;6.28;3.17;;;12.00;99.90;;;12.11;100.00;99947.66;5226812;28;20140;-56
2022/09/26 06:44:33;;;;;;;4.57;2.53;;;12.00;99.90;;;12.14;100.00;99945.13;5226769;28;20060;-56
2022/09/26 06:47:34;;;;;;;4.55;2.47;;;12.10;99.90;;;12.15;100.00;99945.13;5226619;28;20041;-57
2022/09/26 06:50:31;;;;;;;5.35;2.53;;;12.10;99.90;;;12.21;100.00;99941.72;5226119;28;20049;-55
2022/09/26 06:53:05;;;;;;;6.68;2.50;;;12.10;99.90;;;12.26;100.00;99936.56;5226396;28;20088;-56
2022/09/26 06:55:37;;;;;;;3.80;2.30;;;12.20;99.90;;;12.32;100.00;99941.88;5226185;28;20041;-55
2022/09/26 06:58:09;;;;;;;3.78;2.25;;;12.20;99.90;;;12.38;100.00;99927.16;5226220;28;20132;-57
2022/09/26 07:00:55;;;;;;;5.13;2.55;;;12.30;99.90;;;12.48;100.00;99923.81;5225984;28;20048;-57
2022/09/26 07:03:53;;;;;;;5.85;2.40;;;12.40;99.90;;;12.54;100.00;99917.78;5226136;28;20057;-56
2022/09/26 07:06:33;;;;;;;5.22;2.47;;;12.40;99.90;;;12.57;100.00;99923.06;5225779;28;20056;-59
2022/09/26 07:09:06;;;;;;;6.03;2.70;;;12.50;99.90;;;12.59;100.00;99916.13;5225318;28;20532;-57
2022/09/26 07:11:56;;;;;;;7.25;2.95;;;12.50;99.90;;;12.63;100.00;99904.81;5227320;28;20056;-57
2022/09/26 07:14:29;;;;;;;6.82;2.78;;;12.50;99.90;;;12.70;100.00;99895.31;5225713;28;20045;-56
2022/09/26 07:17:08;;;;;;;6.68;2.70;;;12.60;99.90;;;12.80;100.00;99898.94;5225698;28;20449;-58
2022/09/26 07:19:52;;;;;;;5.60;2.40;;;12.70;99.90;;;12.87;100.00;99891.19;5224704;28;20065;-57
2022/09/26 07:22:45;;;;;;;;;;;12.80;99.90;;;12.98;100.00;99901.75;5227335;28;20063;-57
2022/09/26 07:25:17;;;;;;;4.05;2.22;;;12.80;99.90;;;13.13;100.00;99887.97;5225319;28;19920;-57
2022/09/26 07:27:50;;;;;;;5.10;2.22;;;12.90;99.90;;;13.21;100.00;99892.44;5226977;28;20120;-56
2022/09/26 07:30:24;;;;;;;5.80;2.80;;;13.00;99.90;;;13.32;100.00;99886.44;5241598;28;20076;-57
2022/09/26 07:33:08;;;;;;;4.35;2.58;;;13.10;99.90;;;13.34;100.00;99879.47;5202705;22;20402;-60
2022/09/26 07:35:51;;;;;;;3.67;2.30;;;13.20;99.90;;;13.39;100.00;99877.78;5167158;28;20495;-60
2022/09/26 07:38:27;;;;;;;4.65;2.17;;;13.20;99.90;;;13.42;100.00;99869.94;5183388;28;20065;-60
2022/09/26 07:41:00;;;;;;;5.15;2.53;;;13.30;99.90;;;13.44;100.00;99873.47;5183255;28;20100;-60
2022/09/26 07:43:33;;;;;;;5.75;2.47;;;13.30;99.90;;;13.49;100.00;99876.97;5167247;28;20441;-59
2022/09/26 07:52:07;;;;;;;5.05;2.47;;;13.40;99.90;;;13.58;100.00;99866.59;5184918;28;20058;-59
2022/09/26 07:54:54;;;;;;;4.80;2.22;;;13.40;99.90;;;13.61;100.00;99866.59;5167378;28;20065;-60
2022/09/26 07:58:05;;;;;;;5.03;2.40;;;13.50;99.90;;;13.68;100.00;99865.78;5141979;28;20551;-59
2022/09/26 08:00:41;;;;;;;5.63;2.03;;;13.50;99.90;;;13.70;100.00;99865.81;5141477;28;20137;-60
2022/09/26 08:03:33;;;;;;;4.25;1.88;;;13.60;99.90;;;13.72;100.00;99862.31;5171059;28;20066;-59
2022/09/26 08:06:11;;;;;;;2.65;1.73;;;13.60;99.90;;;13.78;100.00;99851.91;5166703;28;20050;-59
2022/09/26 08:08:44;;;;;;;3.97;1.90;;;13.60;99.90;;;13.88;100.00;99844.09;5184055;28;20053;-59
2022/09/26 08:11:36;;;;;;;3.30;1.98;;;13.60;99.90;;;13.95;100.00;99851.13;5184713;28;20418;-59
2022/09/26 08:14:27;;;;;;;2.03;1.63;;;13.70;99.90;;;14.00;100.00;99849.41;5184339;28;20383;-59
2022/09/26 08:17:09;;;;;;;3.85;1.50;;;13.80;99.90;;;14.08;100.00;99850.31;5166565;28;20514;-59
2022/09/26 08:19:42;;;;;;;4.07;1.77;;;13.80;99.90;;;14.10;100.00;99848.59;5183858;28;20056;-62
2022/09/26 08:22:14;;;;;;;3.63;1.50;;;13.90;99.90;;;14.10;100.00;99845.97;5166448;28;20050;-59
2022/09/26 08:24:49;;;;;;;3.58;1.40;;;13.90;99.90;;;14.13;100.00;99840.75;5166112;28;20046;-59
2022/09/26 08:27:49;;;;;;;2.67;1.75;;;13.90;99.90;;;14.10;100.00;99836.38;5180001;28;20069;-60
2022/09/26 08:30:26;;;;;;;1.60;1.35;;;13.90;99.90;;;14.09;100.00;99844.25;5166074;28;20068;-59
2022/09/26 08:32:59;;;;;;;3.08;1.15;;;13.90;99.90;;;14.08;100.00;99847.69;5165925;28;20096;-59
2022/09/26 08:35:35;;;;;;;2.95;1.30;;;13.90;99.90;;;14.07;100.00;99852.06;5166053;28;20050;-60
2022/09/26 08:38:26;;;;;;;2.35;1.20;;;13.90;99.90;;;14.07;100.00;99846.81;5166208;28;20049;-59
2022/09/26 08:41:39;;;;;;;1.58;1.20;;;13.90;99.90;;;14.03;100.00;99852.94;5183849;28;20053;-59
2022/09/26 08:44:53;;;;;;;2.75;1.10;;;13.90;99.90;;;13.99;100.00;99838.06;5166206;28;20503;-60
2022/09/26 08:47:54;;;;;;;1.70;1.00;;;13.90;99.90;;;13.97;100.00;99839.78;5166119;28;20399;-59
2022/09/26 08:50:49;;;;;;;3.00;1.00;;;13.80;99.90;;;13.98;100.00;99840.66;5183268;28;20432;-60
2022/09/26 08:53:27;;;;;;;2.72;0.70;;;13.80;99.90;;;13.96;100.00;99831.94;5182522;28;20629;-60
2022/09/26 08:56:08;;;;;;;2.05;0.90;;;13.80;99.90;;;13.96;100.00;99839.78;5165808;28;20042;-60
2022/09/26 08:58:47;;;;;;;2.13;1.10;;;13.80;99.90;;;13.97;100.00;99839.78;5165597;28;20050;-60
2022/09/26 09:01:26;;;;;;;2.45;1.00;;;13.80;99.90;;;14.01;100.00;99835.44;5165959;28;20049;-59
2022/09/26 09:04:17;;;;;;;2.05;1.08;;;13.80;99.90;;;13.95;100.00;99840.63;5166000;28;20510;-60
2022/09/26 09:06:58;;;;;;;1.48;1.38;;;13.80;99.90;;;13.93;100.00;99839.75;5165998;28;20797;-60
2022/09/26 09:09:30;;;;;;;1.70;1.10;;;13.80;99.90;;;13.91;100.00;99841.50;5165552;28;20050;-59
2022/09/26 09:12:30;;;;;;;4.35;1.15;;;13.80;99.90;;;13.88;100.00;99842.34;5183264;28;20052;-59
2022/09/26 09:15:40;;;;;;;5.28;1.48;;;13.70;99.90;;;13.83;100.00;99837.09;5183314;28;20062;-59
2022/09/26 09:18:34;;;;;;;3.63;1.65;;;13.70;99.90;;;13.81;100.00;99844.03;5165730;28;20108;-59
2022/09/26 09:21:31;;;;;;;4.22;1.40;;;13.70;99.90;;;13.80;100.00;99837.06;5181662;28;20049;-58
2022/09/26 09:24:24;;;;;;;3.33;1.10;;;13.70;99.90;;;13.79;100.00;99840.56;5185989;28;20428;-60
2022/09/26 09:27:05;;;;;;;;;;;13.70;99.90;;;13.76;100.00;99832.69;5185849;28;20041;-60
2022/09/26 09:29:59;;;;;;;1.63;0.90;;;13.60;99.90;;;13.76;100.00;99837.94;5218794;28;19932;-59
2022/09/26 09:32:56;;;;;;;1.98;1.15;;;13.60;99.90;;;13.75;100.00;99828.28;5203941;28;20056;-59
2022/09/26 09:35:53;;;;;;;2.42;1.15;;;13.60;99.90;;;13.74;100.00;99825.66;5203438;28;20099;-58
2022/09/26 09:38:52;;;;;;;1.20;1.10;;;13.60;99.90;;;13.73;100.00;99823.91;5187682;28;20053;-59
2022/09/26 09:41:58;;;;;;;2.15;0.95;;;13.60;99.90;;;13.69;100.00;99817.81;5218991;28;20050;-59
2022/09/26 09:44:41;;;;;;;2.05;1.02;;;13.60;99.90;;;13.66;100.00;99817.75;5205663;28;20120;-59
2022/09/26 09:47:17;;;;;;;1.92;1.08;;;13.50;99.90;;;13.62;100.00;99826.44;5189980;28;20045;-60
2022/09/26 09:49:50;;;;;;;3.53;1.02;;;13.50;99.90;;;13.61;100.00;99814.22;5207645;28;20041;-59
2022/09/26 09:52:39;;;;;;;1.42;0.98;;;13.50;99.90;;;13.57;100.00;99809.84;5190216;28;20453;-59
2022/09/26 09:55:37;;;;;;;2.35;1.10;;;13.50;99.90;;;13.54;100.00;99802.84;5190475;28;20079;-58
2022/09/26 09:58:44;;;;;;;1.33;0.93;;;13.50;99.90;;;13.55;100.00;99798.47;5206735;28;20053;-58
2022/09/26 10:01:25;;;;;;;1.50;1.10;;;13.40;99.90;;;13.54;100.00;99788.88;5190290;28;20052;-59
2022/09/26 10:04:04;;;;;;;2.40;1.10;;;13.40;99.90;;;13.51;100.00;99781.88;5190321;28;20049;-59
2022/09/26 10:06:40;;;;;;;;;;;13.40;99.90;;;13.49;100.00;99777.47;5207208;28;20072;-60
2022/09/26 10:09:20;;;;;;;1.70;1.05;;;13.40;99.90;;;13.50;100.00;99774.03;5207451;28;20407;-59
2022/09/26 10:12:15;;;;;;;1.20;1.02;;;13.40;99.90;;;13.46;100.00;99767.00;5207974;28;20051;-57
2022/09/26 10:15:18;;;;;;;2.75;1.02;;;13.40;99.90;;;13.40;100.00;99766.97;5207976;28;20111;-58
2022/09/26 10:18:14;;;;;;;3.25;1.20;;;13.30;99.90;;;13.36;100.00;99766.06;5207735;28;20409;-58
2022/09/26 10:20:53;;;;;;;2.58;1.20;;;13.30;99.90;;;13.35;100.00;99766.03;5189717;28;20128;-58
2022/09/26 10:23:31;;;;;;;4.72;1.30;;;13.30;99.90;;;13.29;100.00;99749.44;5189955;28;20127;-57
2022/09/26 10:26:09;;;;;;;2.08;1.33;;;13.30;99.90;;;13.26;100.00;99748.56;5190037;28;20041;-58
2022/09/26 10:28:47;;;;;;;2.88;1.30;;;13.20;99.90;;;13.27;100.00;99756.41;5222667;28;20049;-59
2022/09/26 10:31:24;;;;;;;2.55;1.50;;;13.20;99.90;;;13.28;100.00;99752.91;5205761;28;20136;-58
2022/09/26 10:34:24;;;;;;;2.70;1.52;;;13.20;99.90;;;13.26;100.00;99754.66;5205850;28;20060;-58
2022/09/26 10:36:58;;;;;;;3.00;1.38;;;13.20;99.90;;;13.25;100.00;99746.81;5207404;28;20045;-58
2022/09/26 10:42:31;;;;;;;2.70;1.48;;;13.20;99.90;;;13.24;100.00;99729.34;5205744;28;20046;-58
2022/09/26 10:45:12;;;;;;;3.13;1.75;;;13.20;99.90;;;13.26;100.00;99728.50;5205897;28;20049;-58
2022/09/26 10:48:20;;;;;;;2.20;1.25;;;13.20;99.90;;;13.20;100.00;99723.22;5205804;28;20053;-58
2022/09/26 10:51:26;;;;;;;3.42;1.63;;;13.10;99.90;;;13.21;100.00;99734.56;5183467;28;20469;-59
2022/09/26 10:54:09;;;;;;;2.47;1.40;;;13.10;99.90;;;13.23;100.00;99723.22;5205861;28;20056;-58
2022/09/26 10:56:46;;;;;;;2.35;1.50;;;13.10;99.90;;;13.26;100.00;99723.25;5188954;28;20111;-58
2022/09/26 10:59:29;;;;;;;2.75;1.60;;;13.20;99.90;;;13.28;100.00;99715.41;5221622;28;20049;-58
2022/09/26 11:02:02;;;;;;;3.20;1.80;;;13.20;99.90;;;13.28;100.00;99703.19;5188981;28;20058;-58
2022/09/26 11:07:56;;;;;;;2.45;1.65;;;13.20;99.90;;;13.25;100.00;99695.34;5207037;28;20096;-58
2022/09/26 11:10:47;;;;;;;3.10;1.70;;;13.20;99.90;;;13.25;100.00;99682.25;5205175;28;20057;-58
2022/09/26 11:13:46;;;;;;;3.10;1.40;;;13.20;99.90;;;13.28;100.00;99682.25;5188793;28;20057;-58
2022/09/26 11:16:22;;;;;;;3.60;1.70;;;13.20;99.90;;;13.31;100.00;99676.19;5188747;28;20559;-58
2022/09/26 11:19:13;;;;;;;2.92;1.60;;;13.20;99.90;;;13.34;100.00;99667.47;5188520;28;20056;-57
2022/09/26 11:21:51;;;;;;;1.83;1.42;;;13.20;99.90;;;13.35;100.00;99663.97;5221760;28;20053;-58
2022/09/26 11:24:35;;;;;;;2.72;1.48;;;13.20;99.90;;;13.36;100.00;99661.34;5205201;28;20061;-59
2022/09/26 11:27:23;;;;;;;3.08;1.83;;;13.30;99.90;;;13.36;100.00;99650.03;5188610;28;20053;-58